createdAt,value
2018-08-02T00:00:54.187Z,21.00
2018-08-02T00:03:57.379Z,21.00
2018-08-02T00:07:00.836Z,21.10
2018-08-02T00:10:04.618Z,21.10
2018-08-02T00:13:08.187Z,21.00
2018-08-02T00:16:11.358Z,20.90
2018-08-02T00:19:14.511Z,20.90
2018-08-02T00:22:17.712Z,20.90
2018-08-02T00:25:20.832Z,20.80
2018-08-02T00:28:23.991Z,20.80
2018-08-02T00:31:27.196Z,20.80
2018-08-02T00:34:30.326Z,20.80
2018-08-02T00:37:33.484Z,20.60
2018-08-02T00:40:36.694Z,20.80
2018-08-02T00:43:39.873Z,20.70
2018-08-02T00:46:43.100Z,20.80
2018-08-02T00:49:46.307Z,20.80
2018-08-02T00:52:49.564Z,20.80
2018-08-02T00:55:52.816Z,20.70
2018-08-02T00:58:56.010Z,20.50
2018-08-02T01:01:59.141Z,20.50
2018-08-02T01:05:02.558Z,20.50
2018-08-02T01:08:05.788Z,20.40
2018-08-02T01:11:09.004Z,20.40
2018-08-02T01:14:12.155Z,20.50
2018-08-02T01:17:15.326Z,20.50
2018-08-02T01:20:18.898Z,20.40
2018-08-02T01:23:22.090Z,20.40
2018-08-02T01:26:26.599Z,20.40
2018-08-02T01:29:30.538Z,20.30
2018-08-02T01:32:33.890Z,20.40
2018-08-02T01:35:46.268Z,20.30
2018-08-02T01:38:53.188Z,20.20
2018-08-02T01:42:00.884Z,20.20
2018-08-02T01:45:06.826Z,20.40
2018-08-02T01:48:12.129Z,20.10
2018-08-02T01:51:26.776Z,20.20
2018-08-02T01:54:30.713Z,20.10
2018-08-02T01:57:34.484Z,20.30
2018-08-02T02:00:37.671Z,20.10
2018-08-02T02:03:40.881Z,20.10
2018-08-02T02:06:44.071Z,20.10
2018-08-02T02:09:47.231Z,20.20
2018-08-02T02:12:50.869Z,20.30
2018-08-02T02:15:54.043Z,20.20
2018-08-02T02:18:57.198Z,20.10
2018-08-02T02:22:00.379Z,20.10
2018-08-02T02:25:03.781Z,20.10
2018-08-02T02:28:06.968Z,20.00
2018-08-02T02:31:10.165Z,20.00
2018-08-02T02:34:13.307Z,20.10
2018-08-02T02:37:16.451Z,19.90
2018-08-02T02:40:19.669Z,20.10
2018-08-02T02:43:22.806Z,19.90
2018-08-02T02:46:26.040Z,20.00
2018-08-02T02:49:29.155Z,19.90
2018-08-02T02:52:32.480Z,19.90
2018-08-02T02:55:35.644Z,19.90
2018-08-02T02:58:38.798Z,19.80
2018-08-02T03:01:42.051Z,19.90
2018-08-02T03:04:45.181Z,19.80
2018-08-02T03:07:48.453Z,19.70
2018-08-02T03:10:51.583Z,19.80
2018-08-02T03:13:54.769Z,19.80
2018-08-02T03:16:57.927Z,19.70
2018-08-02T03:20:01.301Z,19.80
2018-08-02T03:23:04.483Z,19.70
2018-08-02T03:26:07.688Z,19.70
2018-08-02T03:29:10.871Z,19.70
2018-08-02T03:32:14.046Z,19.80
2018-08-02T03:35:20.015Z,19.70
2018-08-02T03:38:23.403Z,19.60
2018-08-02T03:41:27.443Z,19.70
2018-08-02T03:44:32.033Z,19.90
2018-08-02T03:47:35.235Z,19.70
2018-08-02T03:50:38.457Z,19.90
2018-08-02T03:53:41.660Z,19.70
2018-08-02T03:56:44.818Z,19.60
2018-08-02T03:59:47.942Z,19.70
2018-08-02T04:02:51.190Z,19.70
2018-08-02T04:05:54.824Z,19.60
2018-08-02T04:08:58.413Z,19.50
2018-08-02T04:12:01.677Z,19.50
2018-08-02T04:15:07.297Z,19.50
2018-08-02T04:18:10.574Z,19.50
2018-08-02T04:21:13.825Z,19.60
2018-08-02T04:24:17.189Z,19.50
2018-08-02T04:27:20.436Z,19.50
2018-08-02T04:30:23.650Z,19.50
2018-08-02T04:33:27.025Z,19.60
2018-08-02T04:36:30.598Z,19.60
2018-08-02T04:39:33.793Z,19.60
2018-08-02T04:42:37.526Z,19.70
2018-08-02T04:45:40.793Z,19.70
2018-08-02T04:48:43.980Z,19.60
2018-08-02T04:51:47.183Z,19.60
2018-08-02T04:54:50.408Z,19.70
2018-08-02T04:57:53.530Z,19.70
2018-08-02T05:00:56.695Z,19.70
2018-08-02T05:03:59.899Z,19.80
2018-08-02T05:07:03.103Z,19.80
2018-08-02T05:10:06.356Z,19.90
2018-08-02T05:13:09.504Z,19.90
2018-08-02T05:16:12.614Z,19.70
2018-08-02T05:19:15.839Z,19.90
2018-08-02T05:22:19.042Z,19.80
2018-08-02T05:25:22.254Z,20.00
2018-08-02T05:28:25.449Z,20.00
2018-08-02T05:31:28.581Z,19.90
2018-08-02T05:34:31.951Z,20.00
2018-08-02T05:37:34.926Z,20.00
2018-08-02T05:40:38.418Z,19.90
2018-08-02T05:43:41.549Z,20.00
2018-08-02T05:46:44.707Z,20.00
2018-08-02T05:49:47.872Z,20.00
2018-08-02T05:52:51.063Z,20.00
2018-08-02T05:55:54.260Z,20.00
2018-08-02T05:58:57.373Z,20.10
2018-08-02T06:02:00.603Z,20.20
2018-08-02T06:05:03.815Z,20.20
2018-08-02T06:08:07.086Z,20.20
2018-08-02T06:11:11.829Z,20.30
2018-08-02T06:14:17.034Z,20.40
2018-08-02T06:17:20.262Z,20.40
2018-08-02T06:23:26.620Z,20.50
2018-08-02T06:26:30.228Z,20.80
2018-08-02T06:29:33.496Z,20.80
2018-08-02T06:32:36.708Z,21.40
2018-08-02T06:35:40.081Z,21.80
2018-08-02T06:38:43.476Z,21.90
2018-08-02T06:41:46.915Z,22.00
2018-08-02T06:44:50.273Z,21.90
2018-08-02T06:47:51.799Z,21.90
2018-08-02T06:50:55.415Z,21.70
2018-08-02T06:53:58.627Z,22.20
2018-08-02T06:57:01.670Z,22.40
2018-08-02T07:00:09.081Z,22.60
2018-08-02T07:03:12.260Z,23.10
2018-08-02T07:06:15.629Z,23.00
2018-08-02T07:09:18.740Z,23.00
2018-08-02T07:12:22.052Z,23.20
2018-08-02T07:15:25.170Z,23.50
2018-08-02T07:18:28.284Z,23.70
2018-08-02T07:21:32.993Z,23.80
2018-08-02T07:24:36.125Z,23.90
2018-08-02T07:27:39.226Z,23.80
2018-08-02T07:30:42.373Z,23.90
2018-08-02T07:33:45.501Z,24.10
2018-08-02T07:36:48.602Z,24.20
2018-08-02T07:39:52.019Z,24.20
2018-08-02T07:42:55.143Z,24.20
2018-08-02T07:45:58.198Z,24.30
2018-08-02T07:49:01.617Z,24.40
2018-08-02T07:52:04.779Z,24.40
2018-08-02T07:55:07.863Z,24.30
2018-08-02T07:58:10.950Z,24.40
2018-08-02T08:01:14.111Z,24.50
2018-08-02T08:04:17.118Z,24.40
2018-08-02T08:07:20.143Z,24.60
2018-08-02T08:10:23.214Z,24.40
2018-08-02T08:13:26.207Z,24.50
2018-08-02T08:16:30.087Z,24.70
2018-08-02T08:19:33.160Z,24.50
2018-08-02T08:22:36.741Z,24.60
2018-08-02T08:25:39.812Z,25.10
2018-08-02T08:28:42.963Z,24.90
2018-08-02T08:31:45.974Z,24.80
2018-08-02T08:34:49.048Z,25.10
2018-08-02T08:37:52.489Z,25.10
2018-08-02T08:40:55.488Z,25.20
2018-08-02T08:43:58.518Z,25.40
2018-08-02T08:47:01.655Z,25.20
2018-08-02T08:50:05.026Z,25.40
2018-08-02T08:53:08.419Z,25.50
2018-08-02T08:56:11.537Z,25.90
2018-08-02T08:59:32.381Z,26.00
2018-08-02T09:02:35.430Z,25.80
2018-08-02T09:05:38.634Z,26.10
2018-08-02T09:08:41.690Z,25.90
2018-08-02T09:11:44.748Z,25.90
2018-08-02T09:14:47.893Z,25.80
2018-08-02T09:17:50.960Z,25.90
2018-08-02T09:20:54.065Z,26.00
2018-08-02T09:23:57.128Z,26.20
2018-08-02T09:27:00.654Z,26.20
2018-08-02T09:30:04.814Z,26.60
2018-08-02T09:33:07.908Z,26.30
2018-08-02T09:36:10.935Z,26.60
2018-08-02T09:39:14.167Z,26.70
2018-08-02T09:42:17.266Z,26.80
2018-08-02T09:45:20.351Z,26.70
2018-08-02T09:48:23.459Z,26.70
2018-08-02T09:51:26.488Z,26.80
2018-08-02T09:54:29.601Z,26.70
2018-08-02T09:57:32.686Z,27.20
2018-08-02T10:00:41.324Z,27.10
2018-08-02T10:03:44.745Z,27.30
2018-08-02T10:06:47.822Z,27.50
2018-08-02T10:09:51.011Z,27.40
2018-08-02T10:12:54.501Z,27.40
2018-08-02T10:15:57.519Z,27.60
2018-08-02T10:19:00.713Z,28.10
2018-08-02T10:22:03.801Z,28.10
2018-08-02T10:25:06.908Z,28.00
2018-08-02T10:28:09.927Z,28.00
2018-08-02T10:31:13.142Z,28.00
2018-08-02T10:34:16.449Z,28.10
2018-08-02T10:37:19.478Z,28.40
2018-08-02T10:40:22.717Z,28.20
2018-08-02T10:43:25.749Z,28.50
2018-08-02T10:46:28.820Z,28.40
2018-08-02T10:49:32.016Z,28.50
2018-08-02T10:52:35.265Z,28.70
2018-08-02T10:55:38.332Z,29.00
2018-08-02T10:58:41.425Z,28.80
2018-08-02T11:01:44.567Z,29.00
2018-08-02T11:04:47.533Z,29.00
2018-08-02T11:07:50.509Z,29.00
2018-08-02T11:10:53.519Z,29.20
2018-08-02T11:13:56.532Z,29.20
2018-08-02T11:16:59.698Z,29.30
2018-08-02T11:20:03.164Z,29.30
2018-08-02T11:23:06.355Z,29.70
2018-08-02T11:26:09.411Z,29.70
2018-08-02T11:29:12.552Z,29.50
2018-08-02T11:32:15.518Z,29.70
2018-08-02T11:35:18.544Z,29.90
2018-08-02T11:38:21.777Z,30.00
2018-08-02T11:41:24.720Z,29.90
2018-08-02T11:44:27.745Z,29.90
2018-08-02T11:47:31.191Z,30.10
2018-08-02T11:50:34.231Z,30.10
2018-08-02T11:53:37.331Z,30.10
2018-08-02T11:56:40.757Z,29.90
2018-08-02T11:59:44.108Z,30.00
2018-08-02T12:02:47.109Z,30.30
2018-08-02T12:05:50.233Z,30.30
2018-08-02T12:08:53.231Z,30.30
2018-08-02T12:11:56.223Z,30.40
2018-08-02T12:14:59.256Z,30.20
2018-08-02T12:18:02.369Z,30.30
2018-08-02T12:21:05.485Z,30.70
2018-08-02T12:24:08.642Z,30.70
2018-08-02T12:27:11.944Z,30.70
2018-08-02T12:30:15.008Z,30.10
2018-08-02T12:33:18.078Z,29.80
2018-08-02T12:36:21.079Z,30.10
2018-08-02T12:39:24.018Z,30.20
2018-08-02T12:42:27.007Z,30.30
2018-08-02T12:45:30.293Z,30.70
2018-08-02T12:48:33.267Z,31.00
2018-08-02T12:51:36.502Z,30.90
2018-08-02T12:54:39.717Z,31.00
2018-08-02T12:57:43.012Z,31.10
2018-08-02T13:00:45.978Z,31.10
2018-08-02T13:03:48.973Z,31.20
2018-08-02T13:06:51.949Z,31.30
2018-08-02T13:09:54.865Z,31.30
2018-08-02T13:12:57.803Z,31.40
2018-08-02T13:16:01.650Z,31.40
2018-08-02T13:19:04.703Z,31.10
2018-08-02T13:22:07.861Z,31.30
2018-08-02T13:25:17.145Z,31.40
2018-08-02T13:28:20.597Z,31.50
2018-08-02T13:31:23.728Z,31.50
2018-08-02T13:34:26.691Z,31.60
2018-08-02T13:37:30.149Z,31.80
2018-08-02T13:40:34.250Z,31.90
2018-08-02T13:43:37.719Z,32.00
2018-08-02T13:46:41.480Z,31.90
2018-08-02T13:49:44.928Z,31.90
2018-08-02T13:52:48.126Z,32.00
2018-08-02T13:55:51.110Z,31.80
2018-08-02T14:01:57.835Z,31.70
2018-08-02T14:05:03.174Z,31.70
2018-08-02T14:08:06.750Z,30.90
2018-08-02T14:11:10.054Z,30.30
2018-08-02T14:14:13.400Z,30.80
2018-08-02T14:20:19.976Z,31.60
2018-08-02T14:23:23.647Z,31.70
2018-08-02T14:26:27.393Z,31.70
2018-08-02T14:29:31.472Z,31.70
2018-08-02T14:32:35.343Z,32.00
2018-08-02T14:35:38.740Z,32.00
2018-08-02T14:38:42.050Z,32.10
2018-08-02T14:41:45.338Z,32.10
2018-08-02T14:44:48.301Z,32.10
2018-08-02T14:47:51.317Z,31.90
2018-08-02T14:50:54.928Z,32.00
2018-08-02T14:53:58.188Z,31.90
2018-08-02T14:57:01.477Z,32.00
2018-08-02T15:00:05.410Z,32.00
2018-08-02T15:03:08.401Z,32.00
2018-08-02T15:06:11.472Z,31.90
2018-08-02T15:09:14.812Z,31.70
2018-08-02T15:12:17.817Z,31.90
2018-08-02T15:15:20.793Z,32.00
2018-08-02T15:18:23.797Z,32.00
2018-08-02T15:21:26.741Z,31.70
2018-08-02T15:24:30.898Z,31.70
2018-08-02T15:27:34.003Z,31.20
2018-08-02T15:30:38.033Z,31.20
2018-08-02T15:33:41.174Z,31.40
2018-08-02T15:36:44.115Z,31.10
2018-08-02T15:39:47.072Z,31.40
2018-08-02T15:42:50.045Z,31.40
2018-08-02T15:45:53.007Z,31.40
2018-08-02T15:48:56.152Z,31.50
2018-08-02T15:51:59.485Z,31.40
2018-08-02T15:55:02.668Z,31.30
2018-08-02T15:58:06.006Z,31.10
2018-08-02T16:01:09.294Z,31.10
2018-08-02T16:04:12.303Z,30.90
2018-08-02T16:07:15.256Z,30.90
2018-08-02T16:10:18.225Z,30.80
2018-08-02T16:13:21.319Z,30.70
2018-08-02T16:16:24.269Z,30.70
2018-08-02T16:19:27.283Z,30.50
2018-08-02T16:22:31.269Z,30.40
2018-08-02T16:25:34.367Z,30.40
2018-08-02T16:28:37.429Z,30.40
2018-08-02T16:31:40.443Z,30.40
2018-08-02T16:34:43.501Z,30.20
2018-08-02T16:37:46.488Z,29.90
2018-08-02T16:40:49.537Z,30.00
2018-08-02T16:43:52.501Z,30.10
2018-08-02T16:46:55.445Z,30.30
2018-08-02T16:49:58.418Z,30.20
2018-08-02T16:53:02.477Z,30.20
2018-08-02T16:56:05.602Z,30.20
2018-08-02T16:59:10.354Z,30.20
2018-08-02T17:02:14.200Z,30.10
2018-08-02T17:05:17.196Z,30.10
2018-08-02T17:08:20.171Z,30.10
2018-08-02T17:11:23.158Z,30.10
2018-08-02T17:14:26.146Z,30.00
2018-08-02T17:17:29.199Z,30.00
2018-08-02T17:20:32.386Z,30.00
2018-08-02T17:23:35.658Z,30.10
2018-08-02T17:26:38.702Z,30.10
2018-08-02T17:29:41.725Z,30.00
2018-08-02T17:32:44.670Z,29.80
2018-08-02T17:35:47.614Z,29.90
2018-08-02T17:38:50.526Z,29.80
2018-08-02T17:41:53.473Z,29.70
2018-08-02T17:44:56.408Z,29.60
2018-08-02T17:47:59.370Z,29.60
2018-08-02T17:51:02.344Z,29.60
2018-08-02T17:54:06.193Z,29.70
2018-08-02T17:57:09.142Z,29.50
2018-08-02T18:00:12.378Z,29.50
2018-08-02T18:03:15.315Z,29.50
2018-08-02T18:06:18.246Z,29.40
2018-08-02T18:09:21.178Z,29.40
2018-08-02T18:12:24.143Z,29.30
2018-08-02T18:15:27.097Z,29.40
2018-08-02T18:18:30.152Z,29.30
2018-08-02T18:24:36.715Z,29.10
2018-08-02T18:27:39.873Z,29.10
2018-08-02T18:30:44.336Z,29.10
2018-08-02T18:33:49.937Z,29.00
2018-08-02T18:36:54.928Z,29.10
2018-08-02T18:39:58.593Z,29.10
2018-08-02T18:46:06.689Z,28.40
2018-08-02T18:49:10.314Z,28.10
2018-08-02T18:52:14.379Z,28.00
2018-08-02T18:55:17.624Z,27.80
2018-08-02T18:58:21.124Z,27.50
2018-08-02T19:01:24.049Z,27.50
2018-08-02T19:04:27.149Z,27.40
2018-08-02T19:07:30.274Z,27.30
2018-08-02T19:10:34.476Z,27.20
2018-08-02T19:13:37.801Z,27.00
2018-08-02T19:16:41.200Z,26.90
2018-08-02T19:19:44.236Z,26.80
2018-08-02T19:22:47.302Z,26.90
2018-08-02T19:28:53.017Z,26.50
2018-08-02T19:31:56.846Z,26.30
2018-08-02T19:35:00.067Z,26.30
2018-08-02T19:38:03.307Z,26.20
2018-08-02T19:41:06.990Z,25.90
2018-08-02T19:44:10.633Z,25.80
2018-08-02T19:47:13.807Z,25.70
2018-08-02T19:50:17.042Z,25.90
2018-08-02T19:53:20.273Z,25.50
2018-08-02T19:56:23.621Z,25.60
2018-08-02T19:59:26.846Z,25.60
2018-08-02T20:02:30.168Z,25.50
2018-08-02T20:05:33.394Z,25.60
2018-08-02T20:08:36.600Z,25.60
2018-08-02T20:11:40.317Z,25.10
2018-08-02T20:14:43.589Z,25.10
2018-08-02T20:17:46.683Z,25.40
2018-08-02T20:20:49.916Z,25.20
2018-08-02T20:23:53.083Z,25.20
2018-08-02T20:26:56.287Z,25.00
2018-08-02T20:29:59.502Z,25.20
2018-08-02T20:33:02.774Z,25.00
2018-08-02T20:36:07.923Z,24.90
2018-08-02T20:39:13.068Z,24.90
2018-08-02T20:42:18.218Z,24.80
2018-08-02T20:45:21.455Z,24.90
2018-08-02T20:48:31.625Z,24.80
2018-08-02T20:51:35.755Z,24.70
2018-08-02T20:54:40.050Z,24.80
2018-08-02T20:57:48.428Z,24.80
2018-08-02T21:00:51.786Z,24.70
2018-08-02T21:03:55.033Z,24.60
2018-08-02T21:06:58.298Z,24.80
2018-08-02T21:13:04.593Z,24.60
2018-08-02T21:16:07.651Z,24.50
2018-08-02T21:19:10.766Z,24.70
2018-08-02T21:22:13.890Z,24.40
2018-08-02T21:30:49.593Z,24.40
2018-08-02T21:33:53.054Z,24.30
2018-08-02T21:36:56.137Z,24.10
2018-08-02T21:39:59.258Z,24.20
2018-08-02T21:43:02.782Z,24.10
2018-08-02T21:46:06.517Z,24.10
2018-08-02T21:49:10.234Z,24.00
2018-08-02T21:52:13.359Z,23.70
2018-08-02T21:55:16.492Z,23.80
2018-08-02T21:58:19.551Z,23.90
2018-08-02T22:01:22.804Z,23.90
2018-08-02T22:04:25.900Z,23.90
2018-08-02T22:07:29.793Z,23.80
2018-08-02T22:10:33.216Z,23.80
2018-08-02T22:13:42.330Z,23.70
2018-08-02T22:16:46.803Z,23.70
2018-08-02T22:19:49.938Z,23.70
2018-08-02T22:22:53.142Z,23.70
2018-08-02T22:25:56.241Z,23.80
2018-08-02T22:28:59.328Z,23.60
2018-08-02T22:32:02.423Z,23.40
2018-08-02T22:35:05.565Z,23.30
2018-08-02T22:38:08.683Z,23.50
2018-08-02T22:41:11.774Z,23.30
2018-08-02T22:44:14.890Z,23.50
2018-08-02T22:47:18.224Z,23.30
2018-08-02T22:50:21.390Z,23.40
2018-08-02T22:53:24.689Z,23.30
2018-08-02T22:56:27.856Z,23.10
2018-08-02T22:59:30.895Z,23.30
2018-08-02T23:02:34.013Z,23.30
2018-08-02T23:05:37.232Z,23.20
2018-08-02T23:08:40.278Z,23.10
2018-08-02T23:11:43.373Z,22.90
2018-08-02T23:14:46.430Z,23.00
2018-08-02T23:17:49.487Z,23.10
2018-08-02T23:20:52.688Z,23.10
2018-08-02T23:23:55.806Z,22.90
2018-08-02T23:26:58.929Z,23.00
2018-08-02T23:30:02.050Z,23.00
2018-08-02T23:33:05.174Z,22.90
2018-08-02T23:36:08.214Z,22.90
2018-08-02T23:39:11.278Z,22.80
2018-08-02T23:42:14.335Z,22.90
2018-08-02T23:45:17.414Z,22.80
2018-08-02T23:48:20.506Z,22.90
2018-08-02T23:51:23.697Z,22.80
2018-08-02T23:54:26.798Z,22.70
2018-08-02T23:57:29.874Z,22.70
